sensor_id;sensor_type;location;lat;lon;timestamp;P1;durP1;ratioP1;P2;durP2;ratioP2
67602;SDS011;54417;47.454;18.918;2023-04-22T00:01:43;9.25;;;5.85;;
67602;SDS011;54417;47.454;18.918;2023-04-22T00:07:07;9.82;;;6.30;;
67602;SDS011;54417;47.454;18.918;2023-04-22T00:12:32;6.63;;;5.45;;
67602;SDS011;54417;47.454;18.918;2023-04-22T00:17:56;6.93;;;5.65;;
67602;SDS011;54417;47.454;18.918;2023-04-22T00:23:20;7.13;;;5.70;;
67602;SDS011;54417;47.454;18.918;2023-04-22T00:28:45;9.48;;;5.93;;
67602;SDS011;54417;47.454;18.918;2023-04-22T00:34:09;7.97;;;6.03;;
67602;SDS011;54417;47.454;18.918;2023-04-22T00:39:33;6.93;;;5.50;;
67602;SDS011;54417;47.454;18.918;2023-04-22T00:45:02;10.88;;;6.32;;
67602;SDS011;54417;47.454;18.918;2023-04-22T00:50:27;13.75;;;5.32;;
67602;SDS011;54417;47.454;18.918;2023-04-22T00:55:50;11.05;;;5.22;;
67602;SDS011;54417;47.454;18.918;2023-04-22T01:01:15;7.47;;;5.70;;
67602;SDS011;54417;47.454;18.918;2023-04-22T01:06:40;11.02;;;6.70;;
67602;SDS011;54417;47.454;18.918;2023-04-22T01:12:05;9.45;;;6.47;;
67602;SDS011;54417;47.454;18.918;2023-04-22T01:17:30;9.80;;;6.13;;
67602;SDS011;54417;47.454;18.918;2023-04-22T01:22:55;8.50;;;5.75;;
67602;SDS011;54417;47.454;18.918;2023-04-22T01:28:21;7.50;;;5.72;;
67602;SDS011;54417;47.454;18.918;2023-04-22T01:33:45;9.55;;;5.47;;
67602;SDS011;54417;47.454;18.918;2023-04-22T01:39:10;9.55;;;5.72;;
67602;SDS011;54417;47.454;18.918;2023-04-22T01:44:35;7.00;;;5.88;;
67602;SDS011;54417;47.454;18.918;2023-04-22T01:49:59;6.45;;;5.60;;
67602;SDS011;54417;47.454;18.918;2023-04-22T01:55:23;11.35;;;6.50;;
67602;SDS011;54417;47.454;18.918;2023-04-22T02:00:48;7.72;;;5.57;;
67602;SDS011;54417;47.454;18.918;2023-04-22T02:06:12;9.88;;;6.30;;
67602;SDS011;54417;47.454;18.918;2023-04-22T02:11:36;9.23;;;5.85;;
67602;SDS011;54417;47.454;18.918;2023-04-22T02:17:01;7.55;;;5.55;;
67602;SDS011;54417;47.454;18.918;2023-04-22T02:22:25;7.93;;;5.60;;
67602;SDS011;54417;47.454;18.918;2023-04-22T02:27:50;12.25;;;6.15;;
67602;SDS011;54417;47.454;18.918;2023-04-22T02:33:15;16.33;;;6.32;;
67602;SDS011;54417;47.454;18.918;2023-04-22T02:38:39;12.82;;;5.97;;
67602;SDS011;54417;47.454;18.918;2023-04-22T02:44:03;7.45;;;6.13;;
67602;SDS011;54417;47.454;18.918;2023-04-22T02:49:29;6.80;;;5.78;;
67602;SDS011;54417;47.454;18.918;2023-04-22T02:54:52;10.43;;;5.90;;
67602;SDS011;54417;47.454;18.918;2023-04-22T03:00:17;6.97;;;6.00;;
67602;SDS011;54417;47.454;18.918;2023-04-22T03:05:42;9.23;;;5.85;;
67602;SDS011;54417;47.454;18.918;2023-04-22T03:11:06;11.93;;;5.75;;
67602;SDS011;54417;47.454;18.918;2023-04-22T03:16:30;8.68;;;6.05;;
67602;SDS011;54417;47.454;18.918;2023-04-22T03:22:00;7.85;;;6.25;;
67602;SDS011;54417;47.454;18.918;2023-04-22T03:27:23;9.25;;;6.90;;
67602;SDS011;54417;47.454;18.918;2023-04-22T03:32:47;8.07;;;6.75;;
67602;SDS011;54417;47.454;18.918;2023-04-22T03:38:39;10.85;;;6.60;;
67602;SDS011;54417;47.454;18.918;2023-04-22T03:44:03;9.85;;;5.95;;
67602;SDS011;54417;47.454;18.918;2023-04-22T03:49:29;8.98;;;6.05;;
67602;SDS011;54417;47.454;18.918;2023-04-22T03:54:54;9.38;;;6.32;;
67602;SDS011;54417;47.454;18.918;2023-04-22T04:00:19;8.88;;;6.07;;
67602;SDS011;54417;47.454;18.918;2023-04-22T04:05:55;8.80;;;6.10;;
67602;SDS011;54417;47.454;18.918;2023-04-22T04:11:22;9.82;;;6.85;;
67602;SDS011;54417;47.454;18.918;2023-04-22T04:16:46;7.72;;;6.50;;
67602;SDS011;54417;47.454;18.918;2023-04-22T04:22:18;8.60;;;6.43;;
67602;SDS011;54417;47.454;18.918;2023-04-22T04:27:50;8.30;;;6.68;;
67602;SDS011;54417;47.454;18.918;2023-04-22T04:33:15;8.48;;;6.63;;
67602;SDS011;54417;47.454;18.918;2023-04-22T04:38:41;9.40;;;6.90;;
67602;SDS011;54417;47.454;18.918;2023-04-22T04:44:06;17.42;;;6.70;;
67602;SDS011;54417;47.454;18.918;2023-04-22T04:49:32;11.43;;;6.68;;
67602;SDS011;54417;47.454;18.918;2023-04-22T04:55:01;12.00;;;6.03;;
67602;SDS011;54417;47.454;18.918;2023-04-22T05:00:29;8.45;;;6.15;;
67602;SDS011;54417;47.454;18.918;2023-04-22T05:05:53;10.02;;;7.28;;
67602;SDS011;54417;47.454;18.918;2023-04-22T05:11:17;9.68;;;6.80;;
67602;SDS011;54417;47.454;18.918;2023-04-22T05:16:46;11.52;;;7.30;;
67602;SDS011;54417;47.454;18.918;2023-04-22T05:22:10;10.23;;;6.80;;
67602;SDS011;54417;47.454;18.918;2023-04-22T05:27:34;8.98;;;6.13;;
67602;SDS011;54417;47.454;18.918;2023-04-22T05:33:00;8.43;;;6.38;;
67602;SDS011;54417;47.454;18.918;2023-04-22T05:38:25;9.95;;;5.25;;
67602;SDS011;54417;47.454;18.918;2023-04-22T05:43:50;12.15;;;5.63;;
67602;SDS011;54417;47.454;18.918;2023-04-22T05:49:16;9.15;;;5.50;;
67602;SDS011;54417;47.454;18.918;2023-04-22T05:55:12;7.22;;;5.15;;
67602;SDS011;54417;47.454;18.918;2023-04-22T06:00:37;8.32;;;5.20;;
67602;SDS011;54417;47.454;18.918;2023-04-22T06:06:17;7.45;;;5.47;;
67602;SDS011;54417;47.454;18.918;2023-04-22T06:11:41;7.72;;;5.07;;
67602;SDS011;54417;47.454;18.918;2023-04-22T06:17:05;9.75;;;5.13;;
67602;SDS011;54417;47.454;18.918;2023-04-22T06:22:32;7.35;;;4.90;;
67602;SDS011;54417;47.454;18.918;2023-04-22T06:27:56;6.10;;;4.35;;
67602;SDS011;54417;47.454;18.918;2023-04-22T06:33:21;10.07;;;5.07;;
67602;SDS011;54417;47.454;18.918;2023-04-22T06:38:46;12.77;;;5.40;;
67602;SDS011;54417;47.454;18.918;2023-04-22T06:44:31;10.43;;;5.35;;
67602;SDS011;54417;47.454;18.918;2023-04-22T06:50:20;9.73;;;4.90;;
67602;SDS011;54417;47.454;18.918;2023-04-22T07:01:16;6.07;;;4.18;;
67602;SDS011;54417;47.454;18.918;2023-04-22T07:06:41;5.45;;;3.70;;
67602;SDS011;54417;47.454;18.918;2023-04-22T07:12:08;5.85;;;3.58;;
67602;SDS011;54417;47.454;18.918;2023-04-22T07:17:32;6.00;;;4.07;;
67602;SDS011;54417;47.454;18.918;2023-04-22T07:22:55;7.03;;;3.67;;
67602;SDS011;54417;47.454;18.918;2023-04-22T07:28:21;7.22;;;3.70;;
67602;SDS011;54417;47.454;18.918;2023-04-22T07:33:45;7.88;;;3.33;;
67602;SDS011;54417;47.454;18.918;2023-04-22T07:39:08;3.90;;;3.10;;
67602;SDS011;54417;47.454;18.918;2023-04-22T07:44:34;6.53;;;3.63;;
67602;SDS011;54417;47.454;18.918;2023-04-22T07:50:00;11.73;;;3.78;;
67602;SDS011;54417;47.454;18.918;2023-04-22T07:55:24;6.13;;;4.03;;
67602;SDS011;54417;47.454;18.918;2023-04-22T08:00:50;6.57;;;4.03;;
67602;SDS011;54417;47.454;18.918;2023-04-22T08:06:14;8.23;;;3.55;;
67602;SDS011;54417;47.454;18.918;2023-04-22T08:11:37;7.28;;;4.07;;
67602;SDS011;54417;47.454;18.918;2023-04-22T08:17:03;9.65;;;4.00;;
67602;SDS011;54417;47.454;18.918;2023-04-22T08:22:27;9.85;;;3.83;;
67602;SDS011;54417;47.454;18.918;2023-04-22T08:27:50;6.18;;;3.88;;
67602;SDS011;54417;47.454;18.918;2023-04-22T08:33:16;6.57;;;3.92;;
67602;SDS011;54417;47.454;18.918;2023-04-22T08:38:40;8.02;;;4.07;;
67602;SDS011;54417;47.454;18.918;2023-04-22T08:44:04;10.25;;;4.05;;
67602;SDS011;54417;47.454;18.918;2023-04-22T08:49:29;6.40;;;3.58;;
67602;SDS011;54417;47.454;18.918;2023-04-22T08:54:53;4.68;;;3.47;;
67602;SDS011;54417;47.454;18.918;2023-04-22T09:00:17;9.80;;;3.67;;
67602;SDS011;54417;47.454;18.918;2023-04-22T09:05:43;5.70;;;4.15;;
67602;SDS011;54417;47.454;18.918;2023-04-22T09:11:08;9.73;;;4.03;;
67602;SDS011;54417;47.454;18.918;2023-04-22T09:16:32;8.70;;;3.67;;
67602;SDS011;54417;47.454;18.918;2023-04-22T09:22:03;6.43;;;3.90;;
67602;SDS011;54417;47.454;18.918;2023-04-22T09:27:28;8.60;;;3.95;;
67602;SDS011;54417;47.454;18.918;2023-04-22T09:32:52;9.68;;;4.07;;
67602;SDS011;54417;47.454;18.918;2023-04-22T09:38:21;9.63;;;4.43;;
67602;SDS011;54417;47.454;18.918;2023-04-22T09:43:44;5.75;;;3.97;;
67602;SDS011;54417;47.454;18.918;2023-04-22T09:49:09;8.57;;;3.88;;
67602;SDS011;54417;47.454;18.918;2023-04-22T09:54:35;6.05;;;4.20;;
67602;SDS011;54417;47.454;18.918;2023-04-22T09:59:59;7.45;;;3.90;;
67602;SDS011;54417;47.454;18.918;2023-04-22T10:05:28;4.55;;;3.33;;
67602;SDS011;54417;47.454;18.918;2023-04-22T10:10:54;6.20;;;3.58;;
67602;SDS011;54417;47.454;18.918;2023-04-22T10:16:18;3.95;;;3.10;;
67602;SDS011;54417;47.454;18.918;2023-04-22T10:21:43;4.85;;;3.60;;
67602;SDS011;54417;47.454;18.918;2023-04-22T10:27:11;7.70;;;3.20;;
67602;SDS011;54417;47.454;18.918;2023-04-22T10:32:34;7.93;;;3.63;;
67602;SDS011;54417;47.454;18.918;2023-04-22T10:37:58;5.75;;;3.45;;
67602;SDS011;54417;47.454;18.918;2023-04-22T10:43:35;6.18;;;3.72;;
67602;SDS011;54417;47.454;18.918;2023-04-22T10:49:05;5.40;;;3.63;;
67602;SDS011;54417;47.454;18.918;2023-04-22T11:00:30;9.70;;;4.85;;
67602;SDS011;54417;47.454;18.918;2023-04-22T11:06:14;8.83;;;4.83;;
67602;SDS011;54417;47.454;18.918;2023-04-22T11:11:38;5.38;;;3.70;;
67602;SDS011;54417;47.454;18.918;2023-04-22T11:17:04;4.20;;;3.28;;
67602;SDS011;54417;47.454;18.918;2023-04-22T11:22:32;7.95;;;3.95;;
67602;SDS011;54417;47.454;18.918;2023-04-22T11:27:57;6.07;;;3.95;;
67602;SDS011;54417;47.454;18.918;2023-04-22T11:33:22;6.65;;;4.20;;
67602;SDS011;54417;47.454;18.918;2023-04-22T11:38:52;5.68;;;3.33;;
67602;SDS011;54417;47.454;18.918;2023-04-22T11:44:21;14.50;;;3.58;;
67602;SDS011;54417;47.454;18.918;2023-04-22T11:49:57;8.13;;;4.25;;
67602;SDS011;54417;47.454;18.918;2023-04-22T11:55:23;6.15;;;4.28;;
67602;SDS011;54417;47.454;18.918;2023-04-22T12:00:51;8.07;;;4.20;;
67602;SDS011;54417;47.454;18.918;2023-04-22T12:06:18;8.63;;;4.50;;
67602;SDS011;54417;47.454;18.918;2023-04-22T12:11:43;8.60;;;3.97;;
67602;SDS011;54417;47.454;18.918;2023-04-22T12:17:07;11.93;;;3.75;;
67602;SDS011;54417;47.454;18.918;2023-04-22T12:22:34;4.55;;;4.00;;
67602;SDS011;54417;47.454;18.918;2023-04-22T12:28:00;5.95;;;3.65;;
67602;SDS011;54417;47.454;18.918;2023-04-22T12:33:23;8.20;;;4.40;;
67602;SDS011;54417;47.454;18.918;2023-04-22T12:38:49;7.65;;;3.97;;
67602;SDS011;54417;47.454;18.918;2023-04-22T12:44:13;5.53;;;3.60;;
67602;SDS011;54417;47.454;18.918;2023-04-22T12:49:37;6.70;;;3.28;;
67602;SDS011;54417;47.454;18.918;2023-04-22T12:55:03;8.82;;;3.95;;
67602;SDS011;54417;47.454;18.918;2023-04-22T13:00:28;8.43;;;4.15;;
67602;SDS011;54417;47.454;18.918;2023-04-22T13:05:52;6.10;;;3.50;;
67602;SDS011;54417;47.454;18.918;2023-04-22T13:11:18;6.93;;;3.60;;
67602;SDS011;54417;47.454;18.918;2023-04-22T13:16:42;6.65;;;4.18;;
67602;SDS011;54417;47.454;18.918;2023-04-22T13:22:06;5.75;;;3.78;;
67602;SDS011;54417;47.454;18.918;2023-04-22T13:27:31;8.75;;;3.80;;
67602;SDS011;54417;47.454;18.918;2023-04-22T13:32:55;6.07;;;3.83;;
67602;SDS011;54417;47.454;18.918;2023-04-22T13:38:19;5.07;;;3.97;;
67602;SDS011;54417;47.454;18.918;2023-04-22T13:43:44;6.25;;;3.50;;
67602;SDS011;54417;47.454;18.918;2023-04-22T13:49:13;8.25;;;3.70;;
67602;SDS011;54417;47.454;18.918;2023-04-22T13:54:36;9.50;;;3.60;;
67602;SDS011;54417;47.454;18.918;2023-04-22T14:00:03;6.00;;;4.00;;
67602;SDS011;54417;47.454;18.918;2023-04-22T14:05:32;7.07;;;3.53;;
67602;SDS011;54417;47.454;18.918;2023-04-22T14:10:56;5.97;;;3.50;;
67602;SDS011;54417;47.454;18.918;2023-04-22T14:16:22;9.50;;;3.95;;
67602;SDS011;54417;47.454;18.918;2023-04-22T14:21:46;6.10;;;3.10;;
67602;SDS011;54417;47.454;18.918;2023-04-22T14:27:10;4.40;;;3.42;;
67602;SDS011;54417;47.454;18.918;2023-04-22T14:32:35;7.40;;;3.40;;
67602;SDS011;54417;47.454;18.918;2023-04-22T14:37:59;8.50;;;4.20;;
67602;SDS011;54417;47.454;18.918;2023-04-22T14:43:23;6.65;;;3.00;;
67602;SDS011;54417;47.454;18.918;2023-04-22T14:48:49;8.27;;;3.75;;
67602;SDS011;54417;47.454;18.918;2023-04-22T14:54:13;8.05;;;3.30;;
67602;SDS011;54417;47.454;18.918;2023-04-22T14:59:36;7.20;;;3.38;;
67602;SDS011;54417;47.454;18.918;2023-04-22T15:05:02;7.63;;;3.40;;
67602;SDS011;54417;47.454;18.918;2023-04-22T15:10:27;10.38;;;3.58;;
67602;SDS011;54417;47.454;18.918;2023-04-22T15:15:50;5.60;;;3.88;;
67602;SDS011;54417;47.454;18.918;2023-04-22T15:21:16;4.60;;;3.63;;
67602;SDS011;54417;47.454;18.918;2023-04-22T15:26:40;5.35;;;3.45;;
67602;SDS011;54417;47.454;18.918;2023-04-22T15:32:03;8.77;;;3.40;;
67602;SDS011;54417;47.454;18.918;2023-04-22T15:37:29;8.95;;;3.35;;
67602;SDS011;54417;47.454;18.918;2023-04-22T15:42:53;10.68;;;3.15;;
67602;SDS011;54417;47.454;18.918;2023-04-22T15:48:17;5.70;;;3.10;;
67602;SDS011;54417;47.454;18.918;2023-04-22T15:53:42;7.00;;;3.58;;
67602;SDS011;54417;47.454;18.918;2023-04-22T15:59:07;6.90;;;3.28;;
67602;SDS011;54417;47.454;18.918;2023-04-22T16:04:31;8.05;;;3.65;;
67602;SDS011;54417;47.454;18.918;2023-04-22T16:09:56;10.07;;;3.47;;
67602;SDS011;54417;47.454;18.918;2023-04-22T16:15:20;7.82;;;2.97;;
67602;SDS011;54417;47.454;18.918;2023-04-22T16:20:47;7.80;;;3.45;;
67602;SDS011;54417;47.454;18.918;2023-04-22T16:26:12;8.13;;;3.95;;
67602;SDS011;54417;47.454;18.918;2023-04-22T16:31:36;7.65;;;3.30;;
67602;SDS011;54417;47.454;18.918;2023-04-22T16:37:01;12.32;;;3.78;;
67602;SDS011;54417;47.454;18.918;2023-04-22T16:42:26;9.23;;;3.55;;
67602;SDS011;54417;47.454;18.918;2023-04-22T16:47:51;16.20;;;3.97;;
67602;SDS011;54417;47.454;18.918;2023-04-22T16:53:15;9.80;;;3.42;;
67602;SDS011;54417;47.454;18.918;2023-04-22T16:58:40;8.65;;;3.53;;
67602;SDS011;54417;47.454;18.918;2023-04-22T17:04:03;5.93;;;2.83;;
67602;SDS011;54417;47.454;18.918;2023-04-22T17:09:27;7.85;;;3.17;;
67602;SDS011;54417;47.454;18.918;2023-04-22T17:14:53;33.08;;;5.88;;
67602;SDS011;54417;47.454;18.918;2023-04-22T17:20:17;6.75;;;3.00;;
67602;SDS011;54417;47.454;18.918;2023-04-22T17:25:40;10.57;;;3.45;;
67602;SDS011;54417;47.454;18.918;2023-04-22T17:31:06;15.68;;;3.80;;
67602;SDS011;54417;47.454;18.918;2023-04-22T17:36:30;6.07;;;3.60;;
67602;SDS011;54417;47.454;18.918;2023-04-22T17:41:54;6.40;;;4.07;;
67602;SDS011;54417;47.454;18.918;2023-04-22T17:47:20;5.88;;;4.20;;
67602;SDS011;54417;47.454;18.918;2023-04-22T17:52:45;12.07;;;4.43;;
67602;SDS011;54417;47.454;18.918;2023-04-22T17:58:09;9.63;;;4.10;;
67602;SDS011;54417;47.454;18.918;2023-04-22T18:03:34;8.50;;;4.03;;
67602;SDS011;54417;47.454;18.918;2023-04-22T18:08:59;9.20;;;4.78;;
67602;SDS011;54417;47.454;18.918;2023-04-22T18:14:22;15.40;;;4.13;;
67602;SDS011;54417;47.454;18.918;2023-04-22T18:19:48;14.70;;;5.43;;
67602;SDS011;54417;47.454;18.918;2023-04-22T18:25:12;8.77;;;4.55;;
67602;SDS011;54417;47.454;18.918;2023-04-22T18:30:36;18.05;;;6.75;;
67602;SDS011;54417;47.454;18.918;2023-04-22T18:36:03;13.85;;;6.97;;
67602;SDS011;54417;47.454;18.918;2023-04-22T18:41:28;16.17;;;6.78;;
67602;SDS011;54417;47.454;18.918;2023-04-22T18:46:52;11.98;;;6.50;;
67602;SDS011;54417;47.454;18.918;2023-04-22T18:52:17;14.15;;;7.32;;
67602;SDS011;54417;47.454;18.918;2023-04-22T18:57:43;18.40;;;8.00;;
67602;SDS011;54417;47.454;18.918;2023-04-22T19:03:07;17.02;;;7.45;;
67602;SDS011;54417;47.454;18.918;2023-04-22T19:13:57;15.88;;;7.78;;
67602;SDS011;54417;47.454;18.918;2023-04-22T19:19:23;17.17;;;7.20;;
67602;SDS011;54417;47.454;18.918;2023-04-22T19:24:48;12.77;;;7.28;;
67602;SDS011;54417;47.454;18.918;2023-04-22T19:30:13;24.77;;;8.25;;
67602;SDS011;54417;47.454;18.918;2023-04-22T19:35:37;11.10;;;7.20;;
67602;SDS011;54417;47.454;18.918;2023-04-22T19:41:02;10.77;;;6.88;;
67602;SDS011;54417;47.454;18.918;2023-04-22T19:46:26;17.17;;;8.30;;
67602;SDS011;54417;47.454;18.918;2023-04-22T19:51:50;13.48;;;7.00;;
67602;SDS011;54417;47.454;18.918;2023-04-22T19:57:16;9.98;;;6.50;;
67602;SDS011;54417;47.454;18.918;2023-04-22T20:02:41;13.40;;;6.82;;
67602;SDS011;54417;47.454;18.918;2023-04-22T20:08:06;12.52;;;6.65;;
67602;SDS011;54417;47.454;18.918;2023-04-22T20:13:32;12.98;;;7.00;;
67602;SDS011;54417;47.454;18.918;2023-04-22T20:18:56;13.35;;;6.95;;
67602;SDS011;54417;47.454;18.918;2023-04-22T20:24:20;10.48;;;6.97;;
67602;SDS011;54417;47.454;18.918;2023-04-22T20:29:46;13.52;;;6.75;;
67602;SDS011;54417;47.454;18.918;2023-04-22T20:35:12;20.80;;;7.45;;
67602;SDS011;54417;47.454;18.918;2023-04-22T20:40:37;12.00;;;6.53;;
67602;SDS011;54417;47.454;18.918;2023-04-22T20:46:03;14.98;;;7.78;;
67602;SDS011;54417;47.454;18.918;2023-04-22T20:51:27;12.90;;;7.80;;
67602;SDS011;54417;47.454;18.918;2023-04-22T20:56:52;12.02;;;7.50;;
67602;SDS011;54417;47.454;18.918;2023-04-22T21:02:18;11.93;;;8.05;;
67602;SDS011;54417;47.454;18.918;2023-04-22T21:07:43;14.00;;;7.47;;
67602;SDS011;54417;47.454;18.918;2023-04-22T21:13:09;13.38;;;7.53;;
67602;SDS011;54417;47.454;18.918;2023-04-22T21:18:37;10.10;;;7.07;;
67602;SDS011;54417;47.454;18.918;2023-04-22T21:24:02;11.50;;;8.27;;
67602;SDS011;54417;47.454;18.918;2023-04-22T21:29:27;10.43;;;7.65;;
67602;SDS011;54417;47.454;18.918;2023-04-22T21:34:53;11.13;;;7.63;;
67602;SDS011;54417;47.454;18.918;2023-04-22T21:40:18;14.63;;;7.70;;
67602;SDS011;54417;47.454;18.918;2023-04-22T21:45:41;11.57;;;7.55;;
67602;SDS011;54417;47.454;18.918;2023-04-22T21:51:07;10.90;;;7.57;;
67602;SDS011;54417;47.454;18.918;2023-04-22T21:56:31;8.80;;;6.68;;
67602;SDS011;54417;47.454;18.918;2023-04-22T22:01:55;10.75;;;6.50;;
67602;SDS011;54417;47.454;18.918;2023-04-22T22:07:21;15.10;;;7.50;;
67602;SDS011;54417;47.454;18.918;2023-04-22T22:12:45;11.43;;;6.85;;
67602;SDS011;54417;47.454;18.918;2023-04-22T22:18:09;8.90;;;6.35;;
67602;SDS011;54417;47.454;18.918;2023-04-22T22:23:34;10.30;;;7.07;;
67602;SDS011;54417;47.454;18.918;2023-04-22T22:28:58;13.60;;;7.20;;
67602;SDS011;54417;47.454;18.918;2023-04-22T22:34:22;12.98;;;7.60;;
67602;SDS011;54417;47.454;18.918;2023-04-22T22:39:47;17.90;;;7.35;;
67602;SDS011;54417;47.454;18.918;2023-04-22T22:45:11;14.48;;;7.78;;
67602;SDS011;54417;47.454;18.918;2023-04-22T22:50:35;12.43;;;6.80;;
67602;SDS011;54417;47.454;18.918;2023-04-22T22:56:01;14.10;;;7.88;;
67602;SDS011;54417;47.454;18.918;2023-04-22T23:01:25;9.32;;;7.40;;
67602;SDS011;54417;47.454;18.918;2023-04-22T23:06:49;11.88;;;7.35;;
67602;SDS011;54417;47.454;18.918;2023-04-22T23:12:14;10.23;;;6.88;;
67602;SDS011;54417;47.454;18.918;2023-04-22T23:17:38;14.25;;;7.38;;
67602;SDS011;54417;47.454;18.918;2023-04-22T23:23:02;13.38;;;8.35;;
67602;SDS011;54417;47.454;18.918;2023-04-22T23:28:28;9.57;;;7.20;;
67602;SDS011;54417;47.454;18.918;2023-04-22T23:33:53;11.65;;;7.50;;
67602;SDS011;54417;47.454;18.918;2023-04-22T23:39:18;11.57;;;7.22;;
67602;SDS011;54417;47.454;18.918;2023-04-22T23:44:43;17.58;;;7.45;;
67602;SDS011;54417;47.454;18.918;2023-04-22T23:50:07;9.68;;;7.38;;
67602;SDS011;54417;47.454;18.918;2023-04-22T23:55:32;13.13;;;8.38;;
